Time;durP1;ratioP1;P1;durP2;ratioP2;P2;SDS_P1;SDS_P2;PMS_P1;PMS_P2;Temp;Humidity;BMP_temperature;BMP_pressure;BME280_temperature;BME280_humidity;BME280_pressure;Samples;Min_cycle;Max_cycle;Signal;HPM_P1;HPM_P2
2021/04/23 00:01:49;;;;;;;2.72;1.17;;;;;9.50;102704.00;;;;5090079;28;20243;-77
2021/04/23 00:04:17;;;;;;;2.22;1.20;;;;;9.50;102715.00;;;;5090409;28;20202;-76
2021/04/23 00:06:46;;;;;;;3.08;1.30;;;;;9.50;102702.00;;;;5075641;28;20715;-76
2021/04/23 00:09:17;;;;;;;1.95;0.95;;;;;9.50;102703.00;;;;5082943;28;20262;-77
2021/04/23 00:11:46;;;;;;;2.42;1.33;;;;;9.50;102693.00;;;;5089623;28;20737;-77
2021/04/23 00:14:17;;;;;;;2.80;1.13;;;;;9.50;102703.00;;;;5089661;28;20198;-77
2021/04/23 00:16:44;;;;;;;3.88;1.00;;;;;9.60;102692.00;;;;5090215;28;20198;-77
2021/04/23 00:19:13;;;;;;;3.20;0.95;;;;;9.60;102696.00;;;;5089521;28;20556;-77
2021/04/23 00:21:40;;;;;;;2.08;1.08;;;;;9.60;102696.00;;;;5090103;28;20672;-77
2021/04/23 00:24:08;;;;;;;4.18;1.63;;;;;9.60;102698.00;;;;5088841;28;20190;-77
2021/04/23 00:26:36;;;;;;;1.88;0.85;;;;;9.60;102697.00;;;;5088014;28;21931;-77
2021/04/23 00:29:04;;;;;;;2.05;1.10;;;;;9.50;102701.00;;;;5089211;28;20198;-77
2021/04/23 00:31:31;;;;;;;1.80;1.20;;;;;9.50;102704.00;;;;5090233;28;20206;-76
2021/04/23 00:33:57;;;;;;;2.88;1.55;;;;;9.50;102700.00;;;;5089326;28;20257;-77
2021/04/23 00:36:24;;;;;;;3.33;1.05;;;;;9.50;102700.00;;;;5090181;28;20202;-76
2021/04/23 00:38:51;;;;;;;2.80;1.30;;;;;9.50;102701.00;;;;5089431;28;20240;-77
2021/04/23 00:41:22;;;;;;;2.22;1.25;;;;;9.50;102698.00;;;;5089803;28;20199;-77
2021/04/23 00:43:56;;;;;;;2.05;1.30;;;;;9.50;102698.00;;;;5089403;28;20186;-77
2021/04/23 00:46:24;;;;;;;6.88;1.50;;;;;9.50;102705.00;;;;5089999;28;20336;-77
2021/04/23 00:48:51;;;;;;;3.35;1.13;;;;;9.50;102707.00;;;;5088888;28;20204;-77
2021/04/23 00:51:20;;;;;;;1.80;1.30;;;;;9.50;102703.00;;;;5088388;28;20233;-77
2021/04/23 00:53:50;;;;;;;2.30;1.27;;;;;9.50;102710.00;;;;5088780;28;20202;-77
2021/04/23 00:56:20;;;;;;;3.85;1.52;;;;;9.50;102707.00;;;;5087462;28;20199;-77
2021/04/23 00:58:49;;;;;;;2.67;1.30;;;;;9.50;102715.00;;;;5088986;28;20202;-77
2021/04/23 01:01:25;;;;;;;4.63;1.60;;;;;9.50;102710.00;;;;5087870;28;20187;-76
2021/04/23 01:03:53;;;;;;;3.80;1.73;;;;;9.50;102719.00;;;;5087438;28;20209;-77
2021/04/23 01:06:23;;;;;;;3.35;1.38;;;;;9.50;102714.00;;;;5087999;28;20221;-77
2021/04/23 01:08:51;;;;;;;4.47;2.13;;;;;9.50;102709.00;;;;5088027;28;20256;-77
2021/04/23 01:11:19;;;;;;;3.05;1.50;;;;;9.50;102712.00;;;;5088397;28;20198;-77
2021/04/23 01:13:46;;;;;;;3.47;1.42;;;;;9.50;102706.00;;;;5088398;28;20190;-77
2021/04/23 01:16:17;;;;;;;3.90;1.83;;;;;9.50;102704.00;;;;5081764;28;20198;-77
2021/04/23 01:18:44;;;;;;;5.15;1.70;;;;;9.50;102698.00;;;;5088743;28;20195;-77
2021/04/23 01:21:14;;;;;;;2.67;1.98;;;;;9.50;102702.00;;;;5088312;28;20194;-77
2021/04/23 01:23:43;;;;;;;3.75;1.67;;;;;9.50;102705.00;;;;5089656;28;20244;-77
2021/04/23 01:26:12;;;;;;;3.22;1.52;;;;;9.50;102711.00;;;;5087037;28;20544;-77
2021/04/23 01:28:40;;;;;;;3.08;1.90;;;;;9.40;102708.00;;;;5088888;28;20194;-77
2021/04/23 01:31:09;;;;;;;3.95;1.67;;;;;9.40;102708.00;;;;5088338;28;20210;-77
2021/04/23 01:33:38;;;;;;;2.38;1.20;;;;;9.40;102710.00;;;;5073343;28;20216;-77
2021/04/23 01:36:06;;;;;;;3.90;1.50;;;;;9.30;102713.00;;;;5082683;28;20202;-77
2021/04/23 01:38:36;;;;;;;2.53;1.50;;;;;9.30;102709.00;;;;5083358;28;20198;-77
2021/04/23 01:41:04;;;;;;;1.33;1.00;;;;;9.30;102710.00;;;;5081513;28;20195;-77
2021/04/23 01:43:31;;;;;;;2.47;1.30;;;;;9.20;102705.00;;;;5082777;28;20202;-77
2021/04/23 01:45:58;;;;;;;2.45;1.45;;;;;9.20;102713.00;;;;5082761;28;20233;-77
2021/04/23 01:48:25;;;;;;;2.33;1.25;;;;;9.20;102712.00;;;;5082974;28;20205;-77
2021/04/23 01:50:52;;;;;;;4.82;1.30;;;;;9.10;102707.00;;;;5087071;28;20276;-77
2021/04/23 01:53:19;;;;;;;2.40;1.20;;;;;9.10;102717.00;;;;5087660;28;20683;-77
2021/04/23 01:55:47;;;;;;;4.20;1.38;;;;;9.10;102714.00;;;;5087751;28;20628;-77
2021/04/23 01:58:14;;;;;;;2.95;1.15;;;;;9.00;102716.00;;;;5088184;28;20213;-77
2021/04/23 02:00:45;;;;;;;1.75;1.20;;;;;9.00;102712.00;;;;5087900;28;20733;-77
2021/04/23 02:03:13;;;;;;;1.83;1.08;;;;;9.00;102712.00;;;;5088610;28;20687;-77
2021/04/23 02:05:42;;;;;;;2.00;0.90;;;;;8.90;102713.00;;;;5088219;28;20618;-77
2021/04/23 02:08:11;;;;;;;5.03;1.08;;;;;8.90;102720.00;;;;5072425;28;20213;-76
2021/04/23 02:10:43;;;;;;;1.50;0.90;;;;;8.90;102725.00;;;;5088160;28;20198;-77
2021/04/23 02:13:11;;;;;;;5.90;1.52;;;;;8.90;102723.00;;;;5088492;28;20202;-77
2021/04/23 02:15:38;;;;;;;2.53;1.02;;;;;8.80;102723.00;;;;5088949;28;20213;-77
2021/04/23 02:18:06;;;;;;;2.28;1.30;;;;;8.80;102719.00;;;;5077851;28;20191;-77
2021/04/23 02:20:36;;;;;;;2.25;1.00;;;;;8.80;102720.00;;;;5069682;28;20240;-77
2021/04/23 02:23:07;;;;;;;3.00;0.90;;;;;8.80;102724.00;;;;5067581;28;20567;-77
2021/04/23 02:25:36;;;;;;;2.25;1.10;;;;;8.80;102725.00;;;;5068435;28;20238;-77
2021/04/23 02:28:03;;;;;;;2.63;1.00;;;;;8.80;102723.00;;;;5085117;28;20567;-78
2021/04/23 02:30:33;;;;;;;2.17;0.95;;;;;8.80;102727.00;;;;5088648;28;20202;-77
2021/04/23 02:33:01;;;;;;;4.80;1.73;;;;;8.70;102726.00;;;;5088045;28;20198;-77
2021/04/23 02:35:28;;;;;;;3.75;1.38;;;;;8.80;102727.00;;;;5086905;28;20247;-77
2021/04/23 02:37:55;;;;;;;1.20;0.80;;;;;8.80;102717.00;;;;5087950;28;20198;-77
2021/04/23 02:40:25;;;;;;;3.25;1.25;;;;;8.80;102720.00;;;;5088372;28;20191;-78
2021/04/23 02:42:53;;;;;;;4.00;1.25;;;;;8.80;102717.00;;;;5086412;28;20206;-77
2021/04/23 02:45:25;;;;;;;3.38;1.10;;;;;8.80;102722.00;;;;5088113;28;20205;-77
2021/04/23 02:47:54;;;;;;;3.00;1.17;;;;;8.80;102717.00;;;;5085941;28;20190;-77
2021/04/23 02:50:23;;;;;;;2.30;1.13;;;;;8.80;102710.00;;;;5068957;28;20210;-78
2021/04/23 02:52:50;;;;;;;3.38;1.13;;;;;8.80;102711.00;;;;5083011;28;20202;-78
2021/04/23 02:55:18;;;;;;;4.07;1.15;;;;;8.80;102715.00;;;;5090385;28;20191;-78
2021/04/23 02:57:55;;;;;;;2.00;0.93;;;;;8.70;102711.00;;;;5091320;28;20190;-78
2021/04/23 03:00:23;;;;;;;1.73;1.00;;;;;8.80;102715.00;;;;5092183;28;20202;-78
2021/04/23 03:02:50;;;;;;;1.98;1.17;;;;;8.80;102724.00;;;;5091508;28;20218;-78
2021/04/23 03:05:19;;;;;;;5.03;1.58;;;;;8.70;102730.00;;;;5080223;28;20202;-78
2021/04/23 03:07:49;;;;;;;2.10;1.10;;;;;8.70;102736.00;;;;5075142;28;20657;-78
2021/04/23 03:10:17;;;;;;;2.00;1.10;;;;;8.70;102730.00;;;;5091360;28;20698;-78
2021/04/23 03:12:44;;;;;;;5.53;1.58;;;;;8.70;102730.00;;;;5091564;28;20194;-78
2021/04/23 03:15:12;;;;;;;2.65;1.13;;;;;8.60;102728.00;;;;5091283;28;20581;-78
2021/04/23 03:17:40;;;;;;;2.47;1.02;;;;;8.60;102736.00;;;;5090678;28;20656;-78
2021/04/23 03:20:16;;;;;;;1.90;0.80;;;;;8.50;102735.00;;;;5090496;28;20617;-78
2021/04/23 03:22:44;;;;;;;1.67;1.15;;;;;8.50;102739.00;;;;5070464;28;20199;-77
2021/04/23 03:25:13;;;;;;;3.58;1.33;;;;;8.50;102740.00;;;;5076872;28;20205;-78
2021/04/23 03:27:40;;;;;;;3.63;1.25;;;;;8.50;102743.00;;;;5090620;28;20561;-78
2021/04/23 03:30:11;;;;;;;2.90;1.30;;;;;8.40;102744.00;;;;5090477;28;20206;-78
2021/04/23 03:32:38;;;;;;;3.03;1.13;;;;;8.40;102742.00;;;;5089750;28;20591;-77
2021/04/23 03:35:06;;;;;;;3.22;1.33;;;;;8.40;102738.00;;;;5089959;28;20198;-77
2021/04/23 03:37:32;;;;;;;2.45;1.52;;;;;8.40;102736.00;;;;5089995;28;20197;-78
2021/04/23 03:40:00;;;;;;;3.15;1.67;;;;;8.30;102740.00;;;;5089779;28;20205;-78
2021/04/23 03:42:27;;;;;;;1.73;1.08;;;;;8.30;102737.00;;;;5089999;28;20217;-76
2021/04/23 03:44:55;;;;;;;3.10;1.20;;;;;8.30;102744.00;;;;5089618;28;20251;-76
2021/04/23 03:47:22;;;;;;;2.47;1.67;;;;;8.20;102737.00;;;;5090291;28;20314;-77
2021/04/23 03:49:50;;;;;;;2.97;1.08;;;;;8.20;102744.00;;;;5089613;28;20247;-77
2021/04/23 03:52:17;;;;;;;2.33;1.50;;;;;8.20;102742.00;;;;5089550;28;20222;-77
2021/04/23 03:54:44;;;;;;;3.17;1.77;;;;;8.20;102737.00;;;;5070885;28;20206;-77
2021/04/23 03:57:12;;;;;;;3.55;1.45;;;;;8.10;102739.00;;;;5079819;28;20198;-77
2021/04/23 03:59:38;;;;;;;4.68;1.30;;;;;8.10;102732.00;;;;5089980;28;20243;-77
2021/04/23 04:02:05;;;;;;;5.10;1.20;;;;;8.10;102730.00;;;;5089804;28;20210;-77
2021/04/23 04:04:32;;;;;;;2.20;1.05;;;;;8.10;102736.00;;;;5089467;28;20609;-77
2021/04/23 04:06:59;;;;;;;2.60;1.10;;;;;8.00;102735.00;;;;5089745;28;20245;-77
2021/04/23 04:09:26;;;;;;;4.20;1.30;;;;;8.00;102744.00;;;;5088577;28;20567;-77
2021/04/23 04:11:53;;;;;;;4.57;1.75;;;;;8.00;102746.00;;;;5088134;28;20214;-78
2021/04/23 04:14:20;;;;;;;2.20;1.45;;;;;8.00;102741.00;;;;5090263;28;20197;-77
2021/04/23 04:16:47;;;;;;;3.00;1.30;;;;;7.90;102752.00;;;;5084587;28;20195;-77
2021/04/23 04:19:14;;;;;;;3.17;1.20;;;;;7.90;102748.00;;;;5087520;28;21130;-77
2021/04/23 04:21:41;;;;;;;3.28;1.27;;;;;7.90;102752.00;;;;5090416;28;20183;-77
2021/04/23 04:24:08;;;;;;;5.80;1.67;;;;;7.90;102765.00;;;;5090518;28;20194;-77
2021/04/23 04:26:36;;;;;;;3.22;1.38;;;;;7.80;102759.00;;;;5089940;28;20245;-77
2021/04/23 04:29:03;;;;;;;2.30;1.20;;;;;7.80;102767.00;;;;5088981;28;20997;-77
2021/04/23 04:31:31;;;;;;;3.53;1.30;;;;;7.80;102777.00;;;;5089693;28;20743;-77
2021/04/23 04:33:58;;;;;;;3.63;1.20;;;;;7.80;102773.00;;;;5088909;28;20683;-77
2021/04/23 04:36:24;;;;;;;3.75;1.60;;;;;7.80;102774.00;;;;5089868;28;20205;-77
2021/04/23 04:38:51;;;;;;;4.55;1.58;;;;;7.80;102775.00;;;;5089299;28;20743;-75
2021/04/23 04:41:18;;;;;;;2.17;1.63;;;;;7.70;102783.00;;;;5086306;28;20239;-75
2021/04/23 04:43:45;;;;;;;4.20;1.50;;;;;7.70;102779.00;;;;5073658;28;20231;-77
2021/04/23 04:46:12;;;;;;;4.18;1.60;;;;;7.70;102789.00;;;;5087012;28;20214;-76
2021/04/23 04:48:40;;;;;;;4.57;1.48;;;;;7.70;102789.00;;;;5088428;28;21067;-76
2021/04/23 04:51:08;;;;;;;2.42;1.40;;;;;7.70;102802.00;;;;5089514;28;20234;-78
2021/04/23 04:53:35;;;;;;;2.50;1.30;;;;;7.70;102802.00;;;;5086232;28;20194;-76
2021/04/23 04:56:03;;;;;;;4.20;1.45;;;;;7.70;102804.00;;;;5075624;28;20206;-77
2021/04/23 04:58:32;;;;;;;5.88;1.70;;;;;7.70;102799.00;;;;5088289;28;20202;-77
2021/04/23 05:01:00;;;;;;;5.50;1.85;;;;;7.70;102806.00;;;;5089014;28;20208;-76
2021/04/23 05:03:27;;;;;;;3.72;1.38;;;;;7.70;102804.00;;;;5089383;28;20218;-76
2021/04/23 05:05:55;;;;;;;3.45;1.55;;;;;7.70;102812.00;;;;5089293;28;20221;-77
2021/04/23 05:08:22;;;;;;;3.28;1.45;;;;;7.80;102810.00;;;;5088674;28;20664;-76
2021/04/23 05:10:49;;;;;;;2.67;1.65;;;;;7.80;102810.00;;;;5088830;28;20191;-76
2021/04/23 05:13:15;;;;;;;4.65;1.33;;;;;7.80;102812.00;;;;5089036;28;20805;-76
2021/04/23 05:15:42;;;;;;;4.47;2.05;;;;;7.90;102822.00;;;;5086075;28;20259;-77
2021/04/23 05:18:09;;;;;;;3.17;1.55;;;;;7.90;102829.00;;;;5078841;28;20198;-77
2021/04/23 05:20:37;;;;;;;5.45;2.22;;;;;7.90;102832.00;;;;5085979;28;20234;-77
2021/04/23 05:23:05;;;;;;;6.50;1.88;;;;;8.00;102836.00;;;;5087849;28;20199;-77
2021/04/23 05:25:33;;;;;;;3.35;1.75;;;;;8.00;102834.00;;;;5089286;28;20259;-77
2021/04/23 05:27:59;;;;;;;6.00;1.95;;;;;8.10;102825.00;;;;5079118;28;20721;-77
2021/04/23 05:30:28;;;;;;;2.90;1.30;;;;;8.10;102836.00;;;;5081538;28;20198;-77
2021/04/23 05:32:57;;;;;;;3.42;1.67;;;;;8.20;102832.00;;;;5088266;28;20236;-76
2021/04/23 05:35:24;;;;;;;3.63;1.60;;;;;8.30;102829.00;;;;5088582;28;20198;-77
2021/04/23 05:37:51;;;;;;;3.42;2.15;;;;;8.30;102834.00;;;;5088098;28;20255;-76
2021/04/23 05:40:23;;;;;;;3.50;2.10;;;;;8.40;102832.00;;;;5088664;28;20209;-77
2021/04/23 05:42:50;;;;;;;3.03;1.35;;;;;8.50;102839.00;;;;5077109;28;20195;-76
2021/04/23 05:45:18;;;;;;;6.43;1.83;;;;;8.50;102850.00;;;;5088488;28;20194;-77
2021/04/23 05:47:45;;;;;;;3.17;2.00;;;;;8.60;102844.00;;;;5087817;28;20288;-78
2021/04/23 05:50:14;;;;;;;7.10;1.73;;;;;8.70;102846.00;;;;5083658;28;20679;-78
2021/04/23 05:52:42;;;;;;;2.97;1.73;;;;;8.80;102853.00;;;;5088177;28;20194;-79
2021/04/23 05:55:12;;;;;;;3.78;1.52;;;;;8.90;102845.00;;;;5083928;28;20537;-79
2021/04/23 05:57:39;;;;;;;3.60;1.70;;;;;9.00;102845.00;;;;5088538;28;20248;-78
2021/04/23 06:00:09;;;;;;;3.72;1.40;;;;;9.10;102842.00;;;;5087400;28;20247;-79
2021/04/23 06:02:36;;;;;;;6.05;1.70;;;;;9.20;102842.00;;;;5067712;28;20219;-80
2021/04/23 06:05:04;;;;;;;2.70;1.23;;;;;9.30;102841.00;;;;5077624;28;20722;-76
2021/04/23 06:07:31;;;;;;;3.75;1.45;;;;;9.40;102846.00;;;;5088086;28;20226;-76
2021/04/23 06:09:58;;;;;;;3.80;1.00;;;;;9.50;102842.00;;;;5087517;28;20660;-78
2021/04/23 06:12:24;;;;;;;2.97;0.85;;;;;9.60;102839.00;;;;5088755;28;20194;-77
2021/04/23 06:14:52;;;;;;;3.47;1.17;;;;;9.80;102854.00;;;;5086514;28;21009;-78
2021/04/23 06:17:19;;;;;;;2.92;1.08;;;;;9.90;102849.00;;;;5078427;28;20282;-78
2021/04/23 06:19:46;;;;;;;4.53;0.80;;;;;10.00;102855.00;;;;5067223;28;20198;-78
2021/04/23 06:22:13;;;;;;;4.25;1.27;;;;;10.10;102848.00;;;;5067034;28;20199;-78
2021/04/23 06:24:39;;;;;;;3.63;1.38;;;;;10.30;102857.00;;;;5068284;28;20199;-78
2021/04/23 06:27:07;;;;;;;2.28;1.00;;;;;10.40;102852.00;;;;5067973;28;20223;-78
2021/04/23 06:29:33;;;;;;;2.03;0.93;;;;;10.50;102856.00;;;;5071208;28;20210;-78
2021/04/23 06:32:01;;;;;;;1.55;0.60;;;;;10.60;102843.00;;;;5077838;28;20209;-79
2021/04/23 06:34:28;;;;;;;1.45;0.55;;;;;10.70;102849.00;;;;5092510;28;20213;-79
2021/04/23 06:36:55;;;;;;;1.50;0.80;;;;;10.90;102849.00;;;;5091350;28;20210;-78
2021/04/23 06:39:22;;;;;;;3.22;0.98;;;;;11.00;102851.00;;;;5091905;28;20380;-78
2021/04/23 06:41:49;;;;;;;1.75;0.68;;;;;11.10;102862.00;;;;5091323;28;20668;-78
2021/04/23 06:44:16;;;;;;;2.00;0.80;;;;;11.20;102862.00;;;;5091599;28;20565;-78
2021/04/23 06:46:43;;;;;;;7.05;1.05;;;;;11.40;102870.00;;;;5091982;28;20226;-79
2021/04/23 06:49:12;;;;;;;1.23;0.85;;;;;11.50;102861.00;;;;5091247;28;20202;-78
2021/04/23 06:51:39;;;;;;;3.17;0.73;;;;;11.60;102868.00;;;;5091412;28;20279;-78
2021/04/23 06:54:07;;;;;;;3.53;1.15;;;;;11.70;102868.00;;;;5090593;28;20267;-78
2021/04/23 06:56:34;;;;;;;2.33;1.10;;;;;11.80;102872.00;;;;5091865;28;20202;-79
2021/04/23 06:59:00;;;;;;;2.75;1.05;;;;;11.90;102878.00;;;;5090974;28;20217;-79
2021/04/23 07:01:27;;;;;;;2.38;0.88;;;;;12.00;102870.00;;;;5091225;28;20198;-78
2021/04/23 07:03:54;;;;;;;2.67;0.82;;;;;12.20;102879.00;;;;5091178;28;20229;-79
2021/04/23 07:06:22;;;;;;;2.35;0.63;;;;;12.30;102874.00;;;;5090570;28;20599;-78
2021/04/23 07:08:49;;;;;;;4.95;0.98;;;;;12.40;102879.00;;;;5091372;28;20684;-78
2021/04/23 07:11:17;;;;;;;3.33;1.13;;;;;12.50;102879.00;;;;5091334;28;20668;-76
2021/04/23 07:13:44;;;;;;;1.00;0.40;;;;;12.50;102879.00;;;;5090740;28;20205;-76
2021/04/23 07:16:11;;;;;;;2.00;0.85;;;;;12.60;102876.00;;;;5090618;28;20516;-76
2021/04/23 07:18:38;;;;;;;1.58;0.63;;;;;12.70;102873.00;;;;5091282;28;20198;-76
2021/04/23 07:21:05;;;;;;;1.58;0.90;;;;;12.70;102872.00;;;;5090032;28;20202;-76
2021/04/23 07:23:33;;;;;;;4.05;1.00;;;;;12.80;102873.00;;;;5090942;28;20211;-76
2021/04/23 07:25:59;;;;;;;5.05;0.70;;;;;12.80;102874.00;;;;5090672;28;20602;-76
2021/04/23 07:28:26;;;;;;;2.83;0.55;;;;;12.90;102877.00;;;;5090323;28;20193;-76
2021/04/23 07:30:53;;;;;;;1.58;0.60;;;;;13.00;102874.00;;;;5090761;28;20209;-76
2021/04/23 07:33:20;;;;;;;3.63;0.95;;;;;13.10;102875.00;;;;5090986;28;20226;-76
2021/04/23 07:35:48;;;;;;;1.65;0.57;;;;;13.20;102874.00;;;;5090559;28;20669;-76
2021/04/23 07:38:15;;;;;;;2.13;0.70;;;;;13.20;102878.00;;;;5090447;28;20683;-76
2021/04/23 07:40:44;;;;;;;1.75;0.80;;;;;13.30;102880.00;;;;5089889;28;20210;-76
2021/04/23 07:43:11;;;;;;;1.80;0.55;;;;;13.40;102882.00;;;;5090234;28;20624;-76
2021/04/23 07:45:38;;;;;;;1.40;0.75;;;;;13.40;102871.00;;;;5090739;28;20310;-77
2021/04/23 07:48:06;;;;;;;2.92;1.13;;;;;13.50;102876.00;;;;5089789;28;20221;-76
2021/04/23 07:50:33;;;;;;;3.00;0.52;;;;;13.60;102878.00;;;;5090308;28;20303;-76
2021/04/23 07:53:00;;;;;;;2.83;0.70;;;;;13.70;102884.00;;;;5089894;28;20206;-76
2021/04/23 07:55:27;;;;;;;3.10;0.47;;;;;13.70;102885.00;;;;5090925;28;20202;-76
2021/04/23 07:57:55;;;;;;;2.72;0.70;;;;;13.80;102881.00;;;;5090824;28;20202;-76
2021/04/23 08:00:24;;;;;;;2.45;0.80;;;;;13.90;102877.00;;;;5090134;28;20608;-76
2021/04/23 08:02:53;;;;;;;2.55;0.77;;;;;13.90;102884.00;;;;5090186;28;20218;-76
2021/04/23 08:05:20;;;;;;;3.22;0.90;;;;;14.00;102886.00;;;;5090517;28;20204;-76
2021/04/23 08:07:48;;;;;;;1.15;0.55;;;;;14.00;102896.00;;;;5090635;28;20225;-76
2021/04/23 08:10:16;;;;;;;1.05;0.55;;;;;14.10;102897.00;;;;5090035;28;20206;-76
2021/04/23 08:12:43;;;;;;;5.18;0.70;;;;;14.20;102899.00;;;;5090071;28;20202;-76
2021/04/23 08:15:12;;;;;;;6.50;0.75;;;;;14.30;102891.00;;;;5088985;28;20242;-76
2021/04/23 08:17:38;;;;;;;1.70;0.63;;;;;14.40;102901.00;;;;5089711;28;20260;-76
2021/04/23 08:20:08;;;;;;;3.67;0.93;;;;;14.50;102906.00;;;;5089396;28;20709;-76
2021/04/23 08:22:35;;;;;;;2.65;1.15;;;;;14.60;102889.00;;;;5089021;28;20198;-76
2021/04/23 08:25:02;;;;;;;3.05;0.73;;;;;14.70;102896.00;;;;5089712;28;20202;-76
2021/04/23 08:27:29;;;;;;;3.90;1.13;;;;;14.80;102889.00;;;;5089850;28;20645;-76
2021/04/23 08:29:55;;;;;;;1.58;0.68;;;;;14.90;102891.00;;;;5089668;28;20202;-76
2021/04/23 08:32:23;;;;;;;3.33;0.68;;;;;15.00;102886.00;;;;5089639;28;20207;-76
2021/04/23 08:34:50;;;;;;;3.58;1.02;;;;;15.10;102895.00;;;;5089551;28;20202;-76
2021/04/23 08:37:17;;;;;;;2.85;0.93;;;;;15.20;102898.00;;;;5089272;28;20259;-76
2021/04/23 08:39:43;;;;;;;1.40;0.60;;;;;15.30;102895.00;;;;5089494;28;20194;-76
2021/04/23 08:42:11;;;;;;;2.03;0.52;;;;;15.40;102902.00;;;;5089342;28;20519;-77
2021/04/23 08:44:37;;;;;;;1.88;0.75;;;;;15.50;102901.00;;;;5089602;28;20251;-76
2021/04/23 08:47:05;;;;;;;4.35;0.65;;;;;15.60;102895.00;;;;5088485;28;20594;-77
2021/04/23 08:49:34;;;;;;;4.13;1.00;;;;;15.60;102886.00;;;;5089127;28;20221;-77
2021/04/23 08:52:01;;;;;;;4.35;0.90;;;;;15.70;102883.00;;;;5088264;28;20233;-77
2021/04/23 08:54:28;;;;;;;1.60;0.50;;;;;15.80;102890.00;;;;5089213;28;20702;-77
2021/04/23 08:56:55;;;;;;;1.50;0.90;;;;;15.80;102880.00;;;;5088963;28;20202;-76
2021/04/23 08:59:22;;;;;;;1.67;0.80;;;;;15.80;102885.00;;;;5089322;28;20359;-76
2021/04/23 09:01:48;;;;;;;2.80;0.68;;;;;15.80;102879.00;;;;5089186;28;20210;-76
2021/04/23 09:04:15;;;;;;;1.88;0.63;;;;;15.90;102881.00;;;;5088675;28;20266;-76
2021/04/23 09:06:43;;;;;;;1.50;0.60;;;;;15.90;102872.00;;;;5088850;28;20229;-76
2021/04/23 09:09:13;;;;;;;3.25;0.85;;;;;16.00;102869.00;;;;5088672;28;20637;-77
2021/04/23 09:11:43;;;;;;;2.30;0.52;;;;;16.00;102871.00;;;;5088678;28;20643;-76
2021/04/23 09:14:11;;;;;;;2.83;0.77;;;;;16.00;102873.00;;;;5088233;28;20237;-77
2021/04/23 09:16:53;;;;;;;2.78;0.75;;;;;15.90;102865.00;;;;5089204;28;20206;-76
2021/04/23 09:19:23;;;;;;;1.48;0.80;;;;;16.00;102861.00;;;;5088840;28;20213;-76
2021/04/23 09:21:53;;;;;;;1.88;0.90;;;;;16.10;102863.00;;;;5088605;28;20217;-77
2021/04/23 09:24:22;;;;;;;2.10;0.80;;;;;16.20;102869.00;;;;5088351;28;20202;-76
2021/04/23 09:26:49;;;;;;;1.40;0.55;;;;;16.30;102870.00;;;;5088481;28;20696;-76
2021/04/23 09:29:31;;;;;;;3.03;0.80;;;;;16.40;102865.00;;;;5089012;28;20566;-77
2021/04/23 09:32:08;;;;;;;1.42;0.70;;;;;16.50;102866.00;;;;5087801;28;20213;-76
2021/04/23 09:34:45;;;;;;;3.72;0.93;;;;;16.70;102870.00;;;;5088794;28;20288;-77
2021/04/23 09:37:12;;;;;;;1.42;0.80;;;;;16.80;102872.00;;;;5088059;28;20680;-77
2021/04/23 09:39:39;;;;;;;1.55;0.55;;;;;16.90;102878.00;;;;5088087;28;20209;-76
2021/04/23 09:42:10;;;;;;;2.47;1.08;;;;;17.00;102878.00;;;;5088151;28;20239;-76
2021/04/23 09:44:39;;;;;;;2.75;0.73;;;;;17.10;102869.00;;;;5088470;28;20289;-76
2021/04/23 09:47:10;;;;;;;3.05;0.50;;;;;17.20;102870.00;;;;5087571;28;20271;-76
2021/04/23 09:49:37;;;;;;;2.40;0.75;;;;;17.40;102876.00;;;;5081656;28;20237;-77
2021/04/23 09:52:06;;;;;;;1.08;0.60;;;;;17.50;102872.00;;;;5067406;28;20227;-77
2021/04/23 09:54:35;;;;;;;1.42;0.63;;;;;17.60;102878.00;;;;5067897;28;20202;-77
2021/04/23 09:57:11;;;;;;;2.08;1.33;;;;;17.80;102872.00;;;;5081823;28;20255;-75
2021/04/23 09:59:47;;;;;;;3.58;0.80;;;;;17.80;102876.00;;;;5085049;28;20725;-75
2021/04/23 10:02:15;;;;;;;2.35;0.90;;;;;17.90;102879.00;;;;5085886;28;20303;-75
2021/04/23 10:04:43;;;;;;;2.55;0.77;;;;;18.00;102872.00;;;;5086624;28;20194;-76
2021/04/23 10:07:21;;;;;;;2.38;0.47;;;;;18.00;102867.00;;;;5086727;28;20214;-76
2021/04/23 10:09:52;;;;;;;3.58;0.75;;;;;18.00;102871.00;;;;5086012;28;20194;-76
2021/04/23 10:12:40;;;;;;;2.42;0.63;;;;;18.00;102870.00;;;;5086974;28;20194;-76
2021/04/23 10:15:16;;;;;;;4.20;0.77;;;;;18.10;102870.00;;;;5087859;28;20289;-76
2021/04/23 10:17:44;;;;;;;2.90;0.57;;;;;18.10;102864.00;;;;5088390;28;20276;-75
2021/04/23 10:20:13;;;;;;;1.95;0.70;;;;;18.20;102865.00;;;;5087210;28;20657;-76
2021/04/23 10:22:40;;;;;;;1.80;0.43;;;;;18.20;102870.00;;;;5087438;28;20202;-75
2021/04/23 10:25:09;;;;;;;1.90;0.60;;;;;18.30;102863.00;;;;5086930;28;20199;-74
2021/04/23 10:27:37;;;;;;;2.63;0.70;;;;;18.40;102865.00;;;;5086138;28;20225;-75
2021/04/23 10:30:10;;;;;;;1.90;0.90;;;;;18.40;102873.00;;;;5087767;28;20668;-75
2021/04/23 10:32:37;;;;;;;2.15;0.90;;;;;18.50;102880.00;;;;5087898;28;20190;-75
2021/04/23 10:35:04;;;;;;;1.73;0.88;;;;;18.60;102884.00;;;;5086204;28;20798;-76
2021/04/23 10:37:32;;;;;;;1.17;0.85;;;;;18.60;102877.00;;;;5087930;28;20198;-76
2021/04/23 10:39:59;;;;;;;3.42;1.35;;;;;18.70;102873.00;;;;5087119;28;20704;-75
2021/04/23 10:42:50;;;;;;;4.20;1.00;;;;;18.70;102870.00;;;;5087658;28;20194;-73
2021/04/23 10:45:32;;;;;;;4.00;0.80;;;;;18.80;102871.00;;;;5088002;28;20194;-74
2021/04/23 10:48:00;;;;;;;2.30;1.48;;;;;18.90;102863.00;;;;5087145;28;20299;-74
2021/04/23 10:50:30;;;;;;;3.47;1.00;;;;;19.00;102863.00;;;;5087200;28;20194;-75
2021/04/23 10:53:09;;;;;;;2.83;0.93;;;;;19.00;102863.00;;;;5086767;28;20209;-75
2021/04/23 10:55:46;;;;;;;2.33;0.57;;;;;19.20;102859.00;;;;5087836;28;20248;-75
2021/04/23 10:58:15;;;;;;;2.83;0.95;;;;;19.30;102863.00;;;;5086804;28;20198;-75
2021/04/23 11:00:44;;;;;;;4.60;1.40;;;;;19.30;102861.00;;;;5087790;28;20210;-75
2021/04/23 11:03:35;;;;;;;1.17;0.50;;;;;19.30;102848.00;;;;5086455;28;20311;-75
2021/04/23 11:06:04;;;;;;;4.07;0.93;;;;;19.50;102861.00;;;;5051891;28;20199;-75
2021/04/23 11:08:33;;;;;;;5.22;0.90;;;;;19.50;102853.00;;;;5066955;28;20203;-75
2021/04/23 11:11:18;;;;;;;3.75;0.82;;;;;19.40;102861.00;;;;5066657;28;20206;-75
2021/04/23 11:13:50;;;;;;;2.60;0.73;;;;;19.60;102857.00;;;;5067704;28;20199;-75
2021/04/23 11:16:31;;;;;;;5.68;0.90;;;;;19.50;102849.00;;;;5070890;28;20580;-75
2021/04/23 11:19:00;;;;;;;1.73;0.80;;;;;19.60;102846.00;;;;5081352;28;20225;-75
2021/04/23 11:21:38;;;;;;;2.47;0.73;;;;;19.60;102849.00;;;;5080526;28;20213;-75
2021/04/23 11:24:10;;;;;;;1.67;0.88;;;;;19.60;102853.00;;;;5089698;28;20388;-75
2021/04/23 11:27:06;;;;;;;3.97;0.95;;;;;19.60;102852.00;;;;5087965;28;20305;-75
2021/04/23 11:29:40;;;;;;;2.85;1.40;;;;;19.70;102846.00;;;;5090328;28;20191;-75
2021/04/23 11:32:12;;;;;;;1.98;0.85;;;;;19.70;102844.00;;;;5090618;28;20656;-76
2021/04/23 11:34:41;;;;;;;2.53;1.13;;;;;19.70;102844.00;;;;5090635;28;20206;-75
2021/04/23 11:37:10;;;;;;;4.40;0.70;;;;;19.70;102839.00;;;;5090247;28;20201;-75
2021/04/23 11:39:42;;;;;;;5.20;1.10;;;;;19.80;102834.00;;;;5089828;28;20202;-75
2021/04/23 11:42:19;;;;;;;1.85;0.70;;;;;19.90;102843.00;;;;5089719;28;20194;-75
2021/04/23 11:44:55;;;;;;;4.53;1.50;;;;;19.90;102856.00;;;;5089328;28;20214;-75
2021/04/23 11:47:35;;;;;;;3.25;0.90;;;;;19.90;102848.00;;;;5090642;28;20750;-75
2021/04/23 11:50:05;;;;;;;3.35;0.95;;;;;20.00;102848.00;;;;5089490;28;20194;-75
2021/04/23 11:52:33;;;;;;;3.38;1.08;;;;;20.00;102847.00;;;;5089687;28;20268;-75
2021/04/23 11:55:04;;;;;;;2.50;0.93;;;;;20.10;102858.00;;;;5089510;28;20202;-75
2021/04/23 11:57:31;;;;;;;3.67;1.60;;;;;20.10;102850.00;;;;5089753;28;20198;-75
2021/04/23 12:00:02;;;;;;;4.65;1.20;;;;;20.10;102844.00;;;;5088316;28;20668;-75
2021/04/23 12:02:40;;;;;;;2.22;1.05;;;;;20.00;102846.00;;;;5089069;28;20241;-74
2021/04/23 12:05:09;;;;;;;2.88;0.98;;;;;20.10;102844.00;;;;5089453;28;20247;-76
2021/04/23 12:07:43;;;;;;;2.83;1.60;;;;;20.00;102835.00;;;;5089456;28;20218;-75
2021/04/23 12:10:12;;;;;;;2.75;1.10;;;;;20.10;102838.00;;;;5088843;28;20683;-75
2021/04/23 12:12:38;;;;;;;2.95;1.15;;;;;20.20;102834.00;;;;5089137;28;20248;-75
2021/04/23 12:15:07;;;;;;;1.90;1.25;;;;;20.20;102846.00;;;;5088752;28;20206;-75
2021/04/23 12:17:43;;;;;;;3.25;1.33;;;;;20.20;102833.00;;;;5088905;28;20194;-75
2021/04/23 12:20:16;;;;;;;2.25;0.90;;;;;20.20;102821.00;;;;5083837;28;20209;-75
2021/04/23 12:22:43;;;;;;;2.05;1.42;;;;;20.30;102827.00;;;;5089212;28;20571;-75